Terminal Aerodrome Forecast
Issued by NWS Mt. Holly, NJ

Home | Current Version | Previous Version | Text Only | Print | Product List | Glossary On
Versions: 1 2 3 4 5 6 7 8 9 10 11 12 13 14 15
000
FTUS41 KPHI 311000 AAB
TAFACY
TAF AMD
KACY 311018Z 3110/0106 19004KT P6SM SCT025 BKN040
      TEMPO 3112/3115 BKN025
     FM311500 20012KT P6SM SCT030 BKN040
     FM312200 18008KT 4SM SHRA SCT025 OVC050
     FM010400 20006KT P6SM VCSH SCT035 OVC080=

USA.gov is the U.S. government's official web portal to all federal, state and local government web resources and services.